createdAt,value
2023-01-04T00:01:23.407Z,91.90
2023-01-04T00:03:51.236Z,91.70
2023-01-04T00:06:19.646Z,91.80
2023-01-04T00:08:47.891Z,91.50
2023-01-04T00:11:18.911Z,91.90
2023-01-04T00:13:48.161Z,92.40
2023-01-04T00:16:22.856Z,93.00
2023-01-04T00:18:51.753Z,92.80
2023-01-04T00:21:24.717Z,91.80
2023-01-04T00:23:54.493Z,91.10
2023-01-04T00:26:33.022Z,90.90
2023-01-04T00:29:12.871Z,90.90
2023-01-04T00:31:40.827Z,90.70
2023-01-04T00:34:13.401Z,91.30
2023-01-04T00:36:41.626Z,93.20
2023-01-04T00:39:14.862Z,91.50
2023-01-04T00:42:03.148Z,93.10
2023-01-04T00:44:32.793Z,93.70
2023-01-04T00:47:02.235Z,93.90
2023-01-04T00:49:30.763Z,93.40
2023-01-04T00:51:58.577Z,93.40
2023-01-04T00:54:27.818Z,92.40
2023-01-04T00:56:55.472Z,92.50
2023-01-04T00:59:23.415Z,92.20
2023-01-04T01:01:51.774Z,92.20
2023-01-04T01:04:22.651Z,92.10
2023-01-04T01:06:50.705Z,92.10
2023-01-04T01:09:23.033Z,92.20
2023-01-04T01:11:52.648Z,92.20
2023-01-04T01:14:23.549Z,92.10
2023-01-04T01:16:55.148Z,92.10
2023-01-04T01:19:26.186Z,92.40
2023-01-04T01:21:54.051Z,91.80
2023-01-04T01:24:21.807Z,92.40
2023-01-04T01:26:49.579Z,92.20
2023-01-04T01:29:17.302Z,92.60
2023-01-04T01:31:44.983Z,92.50
2023-01-04T01:34:12.737Z,92.90
2023-01-04T01:36:40.277Z,93.90
2023-01-04T01:39:07.911Z,92.90
2023-01-04T01:41:36.119Z,93.60
2023-01-04T01:44:03.674Z,94.60
2023-01-04T01:46:43.144Z,94.30
2023-01-04T01:49:31.021Z,94.80
2023-01-04T01:52:02.545Z,95.50
2023-01-04T01:54:39.817Z,94.90
2023-01-04T01:57:10.673Z,94.50
2023-01-04T01:59:42.346Z,96.40
2023-01-04T02:02:12.146Z,96.00
2023-01-04T02:04:44.762Z,96.10
2023-01-04T02:07:15.818Z,96.40
2023-01-04T02:09:45.138Z,95.40
2023-01-04T02:12:14.140Z,97.10
2023-01-04T02:14:45.853Z,96.70
2023-01-04T02:17:37.830Z,98.70
2023-01-04T02:20:18.055Z,98.80
2023-01-04T02:23:08.387Z,98.00
2023-01-04T02:25:38.685Z,98.20
2023-01-04T02:28:10.587Z,98.60
2023-01-04T02:30:44.272Z,98.90
2023-01-04T02:33:39.937Z,98.40
2023-01-04T02:36:19.353Z,99.30
2023-01-04T02:38:58.957Z,99.90
2023-01-04T02:41:34.292Z,99.40
2023-01-04T02:44:27.388Z,99.90
2023-01-04T02:47:15.324Z,99.60
2023-01-04T02:50:04.905Z,99.90
2023-01-04T02:52:33.801Z,99.40
2023-01-04T02:55:04.600Z,99.70
2023-01-04T02:57:49.256Z,99.90
2023-01-04T03:00:31.884Z,99.90
2023-01-04T03:03:36.335Z,99.90
2023-01-04T03:06:16.186Z,99.90
2023-01-04T03:09:07.585Z,99.90
2023-01-04T03:12:05.326Z,99.90
2023-01-04T03:14:40.993Z,99.90
2023-01-04T03:17:13.821Z,99.90
2023-01-04T03:19:57.499Z,99.90
2023-01-04T03:22:46.241Z,99.90
2023-01-04T03:25:34.698Z,99.90
2023-01-04T03:28:21.392Z,99.90
2023-01-04T03:31:20.380Z,99.90
2023-01-04T03:34:07.105Z,99.90
2023-01-04T03:36:40.444Z,99.90
2023-01-04T03:40:00.618Z,99.90
2023-01-04T03:43:21.943Z,99.90
2023-01-04T03:46:14.774Z,99.90
2023-01-04T03:49:00.713Z,99.90
2023-01-04T03:51:32.987Z,99.90
2023-01-04T03:54:19.282Z,99.90
2023-01-04T03:56:49.518Z,99.90
2023-01-04T03:59:17.576Z,99.90
2023-01-04T04:01:45.706Z,99.90
2023-01-04T04:04:32.146Z,99.90
2023-01-04T04:07:18.339Z,99.90
2023-01-04T04:09:45.907Z,99.90
2023-01-04T04:12:13.484Z,99.90
2023-01-04T04:14:40.992Z,99.90
2023-01-04T04:17:08.602Z,99.90
2023-01-04T04:19:36.209Z,99.90
2023-01-04T04:22:03.964Z,99.90
2023-01-04T04:24:32.822Z,99.90
2023-01-04T04:27:00.381Z,99.90
2023-01-04T04:29:27.923Z,99.90
2023-01-04T04:31:55.649Z,99.90
2023-01-04T04:34:24.505Z,99.90
2023-01-04T04:36:52.020Z,99.90
2023-01-04T04:39:19.617Z,99.90
2023-01-04T04:41:47.374Z,99.90
2023-01-04T04:44:19.831Z,99.90
2023-01-04T04:46:48.888Z,99.90
2023-01-04T04:49:17.761Z,99.90
2023-01-04T04:51:46.351Z,99.90
2023-01-04T04:54:19.116Z,99.90
2023-01-04T04:56:47.107Z,99.90
2023-01-04T04:59:16.161Z,99.90
2023-01-04T05:01:43.939Z,99.90
2023-01-04T05:04:16.633Z,99.90
2023-01-04T05:06:45.228Z,99.90
2023-01-04T05:09:14.334Z,99.90
2023-01-04T05:12:01.340Z,99.90
2023-01-04T05:14:29.187Z,99.90
2023-01-04T05:16:56.880Z,99.90
2023-01-04T05:19:24.651Z,99.90
2023-01-04T05:21:52.279Z,99.90
2023-01-04T05:24:19.824Z,99.90
2023-01-04T05:26:47.416Z,99.90
2023-01-04T05:29:34.934Z,99.90
2023-01-04T05:32:02.641Z,99.90
2023-01-04T05:34:30.244Z,99.90
2023-01-04T05:36:57.805Z,99.90
2023-01-04T05:39:25.317Z,99.90
2023-01-04T05:42:11.399Z,99.90
2023-01-04T05:44:38.934Z,99.90
2023-01-04T05:47:12.933Z,99.90
2023-01-04T05:49:43.049Z,99.90
2023-01-04T05:52:11.146Z,99.90
2023-01-04T05:54:38.728Z,99.90
2023-01-04T05:57:06.777Z,99.90
2023-01-04T05:59:40.844Z,99.90
2023-01-04T06:02:16.040Z,99.90
2023-01-04T06:04:43.673Z,99.90
2023-01-04T06:07:11.264Z,99.90
2023-01-04T06:09:38.801Z,99.90
2023-01-04T06:12:06.768Z,99.90
2023-01-04T06:14:34.390Z,99.90
2023-01-04T06:17:02.216Z,99.90
2023-01-04T06:19:30.058Z,99.90
2023-01-04T06:21:57.924Z,99.90
2023-01-04T06:24:25.673Z,99.90
2023-01-04T06:26:53.372Z,99.90
2023-01-04T06:29:20.980Z,99.90
2023-01-04T06:31:48.541Z,99.90
2023-01-04T06:34:16.082Z,99.90
2023-01-04T06:36:43.710Z,99.90
2023-01-04T06:39:11.467Z,99.90
2023-01-04T06:41:39.116Z,99.90
2023-01-04T06:44:07.033Z,99.90
2023-01-04T06:46:34.659Z,99.90
2023-01-04T06:49:02.433Z,99.90
2023-01-04T06:51:30.039Z,99.90
2023-01-04T06:53:57.745Z,99.90
2023-01-04T06:56:25.353Z,99.90
2023-01-04T06:58:52.945Z,99.90
2023-01-04T07:01:20.638Z,99.90
2023-01-04T07:03:48.223Z,99.90
2023-01-04T07:06:15.817Z,99.90
2023-01-04T07:08:43.525Z,99.90
2023-01-04T07:11:11.126Z,99.90
2023-01-04T07:13:38.723Z,99.90
2023-01-04T07:16:06.801Z,99.90
2023-01-04T07:18:34.577Z,99.90
2023-01-04T07:21:02.807Z,99.90
2023-01-04T07:23:30.347Z,99.90
2023-01-04T07:26:01.742Z,99.90
2023-01-04T07:28:47.691Z,99.90
2023-01-04T07:31:15.368Z,99.90
2023-01-04T07:33:42.963Z,99.90
2023-01-04T07:36:10.581Z,99.90
2023-01-04T07:38:38.143Z,99.90
2023-01-04T07:41:05.817Z,99.90
2023-01-04T07:43:33.470Z,99.90
2023-01-04T07:46:01.754Z,99.90
2023-01-04T07:48:29.750Z,99.90
2023-01-04T07:50:57.460Z,99.90
2023-01-04T07:53:25.009Z,99.90
2023-01-04T07:55:57.903Z,99.90
2023-01-04T07:58:26.110Z,99.90
2023-01-04T08:00:53.692Z,99.90
2023-01-04T08:03:21.236Z,99.90
2023-01-04T08:05:48.828Z,99.90
2023-01-04T08:08:16.363Z,99.90
2023-01-04T08:10:43.875Z,99.90
2023-01-04T08:13:11.804Z,99.90
2023-01-04T08:15:39.505Z,99.90
2023-01-04T08:18:09.798Z,99.90
2023-01-04T08:20:37.434Z,99.90
2023-01-04T08:23:05.099Z,99.90
2023-01-04T08:25:33.007Z,99.90
2023-01-04T08:28:00.640Z,99.90
2023-01-04T08:30:28.244Z,99.90
2023-01-04T08:32:56.081Z,99.90
2023-01-04T08:35:23.677Z,99.90
2023-01-04T08:37:51.407Z,99.90
2023-01-04T08:40:19.042Z,99.90
2023-01-04T08:42:46.600Z,99.90
2023-01-04T08:45:14.359Z,99.90
2023-01-04T08:47:41.972Z,99.90
2023-01-04T08:50:11.020Z,99.90
2023-01-04T08:52:39.187Z,99.90
2023-01-04T08:55:12.207Z,99.90
2023-01-04T08:57:40.604Z,99.90
2023-01-04T09:00:09.486Z,99.90
2023-01-04T09:02:37.301Z,99.90
2023-01-04T09:05:05.626Z,99.90
2023-01-04T09:07:33.275Z,99.90
2023-01-04T09:10:01.084Z,99.90
2023-01-04T09:12:29.011Z,99.90
2023-01-04T09:14:56.663Z,99.90
2023-01-04T09:17:25.556Z,99.90
2023-01-04T09:19:53.116Z,99.90
2023-01-04T09:22:20.673Z,99.90
2023-01-04T09:24:48.352Z,99.90
2023-01-04T09:27:15.899Z,99.90
2023-01-04T09:29:43.575Z,99.90
2023-01-04T09:32:16.242Z,99.90
2023-01-04T09:34:45.358Z,99.90
2023-01-04T09:37:12.950Z,99.90
2023-01-04T09:39:40.597Z,99.90
2023-01-04T09:42:31.828Z,99.90
2023-01-04T09:45:25.104Z,99.90
2023-01-04T09:48:03.590Z,99.90
2023-01-04T09:50:45.445Z,99.90
2023-01-04T09:53:19.607Z,99.90
2023-01-04T09:55:50.665Z,99.90
2023-01-04T09:58:32.343Z,99.90
2023-01-04T10:01:05.189Z,99.90
2023-01-04T10:03:34.388Z,99.90
2023-01-04T10:06:03.260Z,99.90
2023-01-04T10:08:33.641Z,99.90
2023-01-04T10:11:31.129Z,99.90
2023-01-04T10:14:16.755Z,99.90
2023-01-04T10:17:14.723Z,99.90
2023-01-04T10:23:00.745Z,99.90
2023-01-04T10:25:54.205Z,99.90
2023-01-04T10:28:27.576Z,99.90
2023-01-04T10:31:40.253Z,99.90
2023-01-04T10:34:25.694Z,99.90
2023-01-04T10:37:24.449Z,99.90
2023-01-04T10:39:56.349Z,99.90
2023-01-04T10:42:47.356Z,99.90
2023-01-04T10:45:23.959Z,99.90
2023-01-04T10:48:02.428Z,99.90
2023-01-04T10:50:52.598Z,99.90
2023-01-04T10:53:47.565Z,99.90
2023-01-04T10:56:36.633Z,99.90
2023-01-04T10:59:16.846Z,99.90
2023-01-04T11:01:53.745Z,99.90
2023-01-04T11:04:43.316Z,99.90
2023-01-04T11:07:25.442Z,99.90
2023-01-04T11:10:05.054Z,99.90
2023-01-04T11:12:32.791Z,99.90
2023-01-04T11:15:00.545Z,99.90
2023-01-04T11:17:30.289Z,99.90
2023-01-04T11:19:58.951Z,99.90
2023-01-04T11:22:53.269Z,99.90
2023-01-04T11:25:38.455Z,99.90
2023-01-04T11:28:21.489Z,99.90
2023-01-04T11:30:59.106Z,99.90
2023-01-04T11:33:26.977Z,99.90
2023-01-04T11:35:58.962Z,99.90
2023-01-04T11:38:29.796Z,99.90
2023-01-04T11:41:05.494Z,99.90
2023-01-04T11:43:35.533Z,99.90
2023-01-04T11:46:18.370Z,99.90
2023-01-04T11:48:47.927Z,99.90
2023-01-04T11:51:28.639Z,99.90
2023-01-04T11:54:02.401Z,99.90
2023-01-04T11:56:31.659Z,99.90
2023-01-04T11:59:11.304Z,99.90
2023-01-04T12:01:50.947Z,99.90
2023-01-04T12:04:20.684Z,99.90
2023-01-04T12:06:56.987Z,99.90
2023-01-04T12:09:24.639Z,99.90
2023-01-04T12:11:56.953Z,99.90
2023-01-04T12:14:28.276Z,99.90
2023-01-04T12:17:21.719Z,99.90
2023-01-04T12:19:53.854Z,99.90
2023-01-04T12:22:24.577Z,99.90
2023-01-04T12:25:00.328Z,99.90
2023-01-04T12:27:28.651Z,99.90
2023-01-04T12:30:02.524Z,99.90
2023-01-04T12:32:30.162Z,99.90
2023-01-04T12:34:57.900Z,99.90
2023-01-04T12:37:46.112Z,99.90
2023-01-04T12:40:47.988Z,99.90
2023-01-04T12:43:15.684Z,99.90
2023-01-04T12:45:44.169Z,99.90
2023-01-04T12:48:48.584Z,99.90
2023-01-04T12:51:37.279Z,99.90
2023-01-04T12:54:24.511Z,99.90
2023-01-04T12:57:11.094Z,99.90
2023-01-04T12:59:52.493Z,99.90
2023-01-04T13:02:22.412Z,99.90
2023-01-04T13:05:09.309Z,99.90
2023-01-04T13:07:49.554Z,99.90
2023-01-04T13:10:34.880Z,99.90
2023-01-04T13:13:08.425Z,99.90
2023-01-04T13:16:15.800Z,99.90
2023-01-04T13:19:03.210Z,99.90
2023-01-04T13:21:42.810Z,99.90
2023-01-04T13:24:30.492Z,99.90
2023-01-04T13:27:07.075Z,99.90
2023-01-04T13:29:35.878Z,99.90
2023-01-04T13:32:06.328Z,99.90
2023-01-04T13:34:37.865Z,99.90
2023-01-04T13:37:14.138Z,99.90
2023-01-04T13:39:45.099Z,99.90
2023-01-04T13:42:36.696Z,99.90
2023-01-04T13:45:20.014Z,99.90
2023-01-04T13:47:55.480Z,99.90
2023-01-04T13:50:40.094Z,99.90
2023-01-04T13:53:22.435Z,99.90
2023-01-04T13:55:55.843Z,99.90
2023-01-04T13:58:29.146Z,99.90
2023-01-04T14:00:56.923Z,99.90
2023-01-04T14:03:36.601Z,99.90
2023-01-04T14:06:10.254Z,99.90
2023-01-04T14:08:42.896Z,99.90
2023-01-04T14:11:54.649Z,99.90
2023-01-04T14:14:34.639Z,99.90
2023-01-04T14:17:21.951Z,99.90
2023-01-04T14:20:18.311Z,99.90
2023-01-04T14:22:45.870Z,99.90
2023-01-04T14:25:34.648Z,99.90
2023-01-04T14:28:31.063Z,99.90
2023-01-04T14:31:02.483Z,99.90
2023-01-04T14:33:36.376Z,99.90
2023-01-04T14:36:07.739Z,99.90
2023-01-04T14:39:05.243Z,99.90
2023-01-04T14:41:35.466Z,99.90
2023-01-04T14:44:10.036Z,99.90
2023-01-04T14:46:37.888Z,99.90
2023-01-04T14:49:05.706Z,99.90
2023-01-04T14:51:54.901Z,99.90
2023-01-04T14:54:25.316Z,99.90
2023-01-04T14:56:54.618Z,99.90
2023-01-04T14:59:24.550Z,99.90
2023-01-04T15:01:53.722Z,99.90
2023-01-04T15:04:22.006Z,99.90
2023-01-04T15:07:00.797Z,99.90
2023-01-04T15:09:29.806Z,99.90
2023-01-04T15:11:57.692Z,99.90
2023-01-04T15:14:25.319Z,99.90
2023-01-04T15:16:52.909Z,99.90
2023-01-04T15:19:20.561Z,99.90
2023-01-04T15:21:48.103Z,99.90
2023-01-04T15:24:15.892Z,99.90
2023-01-04T15:26:43.703Z,99.90
2023-01-04T15:29:11.629Z,99.90
2023-01-04T15:31:41.664Z,99.90
2023-01-04T15:34:10.792Z,99.90
2023-01-04T15:36:41.311Z,99.90
2023-01-04T15:39:12.739Z,99.90
2023-01-04T15:41:58.832Z,99.90
2023-01-04T15:44:26.811Z,99.90
2023-01-04T15:46:55.052Z,99.90
2023-01-04T15:49:22.697Z,99.90
2023-01-04T15:51:50.620Z,99.90
2023-01-04T15:54:18.580Z,99.90
2023-01-04T15:56:46.123Z,99.90
2023-01-04T15:59:13.922Z,99.90
2023-01-04T16:01:43.226Z,99.90
2023-01-04T16:04:13.795Z,99.90
2023-01-04T16:06:41.888Z,99.90
2023-01-04T16:09:09.874Z,99.90
2023-01-04T16:11:57.581Z,99.90
2023-01-04T16:14:25.370Z,99.90
2023-01-04T16:16:53.062Z,99.90
2023-01-04T16:19:20.633Z,99.90
2023-01-04T16:21:48.202Z,99.90
2023-01-04T16:24:37.346Z,99.90
2023-01-04T16:27:03.436Z,99.90
2023-01-04T16:29:30.955Z,99.90
2023-01-04T16:31:59.191Z,99.90
2023-01-04T16:34:26.892Z,99.90
2023-01-04T16:36:54.707Z,99.90
2023-01-04T16:39:28.405Z,99.90
2023-01-04T16:42:11.024Z,99.90
2023-01-04T16:44:39.299Z,99.90
2023-01-04T16:47:07.341Z,99.90
2023-01-04T16:49:34.911Z,99.90
2023-01-04T16:52:02.618Z,99.90
2023-01-04T16:54:30.228Z,99.90
2023-01-04T16:56:59.009Z,99.90
2023-01-04T16:59:26.641Z,99.90
2023-01-04T17:01:58.201Z,99.90
2023-01-04T17:04:26.272Z,99.90
2023-01-04T17:06:55.138Z,99.90
2023-01-04T17:09:22.984Z,99.90
2023-01-04T17:15:14.840Z,99.90
2023-01-04T17:17:38.938Z,99.90
2023-01-04T17:20:07.412Z,99.90
2023-01-04T17:22:35.406Z,99.90
2023-01-04T17:25:04.574Z,99.90
2023-01-04T17:27:32.537Z,99.90
2023-01-04T17:30:00.726Z,99.90
2023-01-04T17:32:28.960Z,99.90
2023-01-04T17:34:58.223Z,99.90
2023-01-04T17:37:27.320Z,99.90
2023-01-04T17:39:55.343Z,99.90
2023-01-04T17:42:23.285Z,99.90
2023-01-04T17:44:51.661Z,99.90
2023-01-04T17:47:20.497Z,99.90
2023-01-04T17:49:48.995Z,99.90
2023-01-04T17:52:24.425Z,99.90
2023-01-04T17:54:53.826Z,99.90
2023-01-04T17:57:21.829Z,99.90
2023-01-04T17:59:49.688Z,99.90
2023-01-04T18:02:17.708Z,99.90
2023-01-04T18:04:49.604Z,99.90
2023-01-04T18:07:17.959Z,99.90
2023-01-04T18:09:45.950Z,99.90
2023-01-04T18:12:14.718Z,99.90
2023-01-04T18:14:42.659Z,99.90
2023-01-04T18:17:10.720Z,99.90
2023-01-04T18:19:40.317Z,99.90
2023-01-04T18:22:10.453Z,99.90
2023-01-04T18:24:39.259Z,99.90
2023-01-04T18:27:26.447Z,99.90
2023-01-04T18:29:56.478Z,99.90
2023-01-04T18:32:27.155Z,99.90
2023-01-04T18:34:55.291Z,99.90
2023-01-04T18:37:24.936Z,99.90
2023-01-04T18:39:53.135Z,99.90
2023-01-04T18:42:22.020Z,99.90
2023-01-04T18:44:50.322Z,99.90
2023-01-04T18:47:22.027Z,99.90
2023-01-04T18:49:51.108Z,99.90
2023-01-04T18:52:20.172Z,99.90
2023-01-04T18:54:51.182Z,99.90
2023-01-04T18:57:19.727Z,99.90
2023-01-04T18:59:50.616Z,99.90
2023-01-04T19:02:20.175Z,99.90
2023-01-04T19:04:49.654Z,99.90
2023-01-04T19:07:18.746Z,99.90
2023-01-04T19:09:47.545Z,99.90
2023-01-04T19:12:16.170Z,99.90
2023-01-04T19:14:44.786Z,99.90
2023-01-04T19:17:13.646Z,99.90
2023-01-04T19:19:43.741Z,99.90
2023-01-04T19:22:12.512Z,99.90
2023-01-04T19:24:42.567Z,99.90
2023-01-04T19:27:12.980Z,99.90
2023-01-04T19:29:40.949Z,99.90
2023-01-04T19:32:09.567Z,99.90
2023-01-04T19:34:38.482Z,99.90
2023-01-04T19:37:06.862Z,99.90
2023-01-04T19:39:35.501Z,99.90
2023-01-04T19:42:04.489Z,99.90
2023-01-04T19:44:32.800Z,99.90
2023-01-04T19:47:01.054Z,99.90
2023-01-04T19:49:29.617Z,99.90
2023-01-04T19:51:59.251Z,99.90
2023-01-04T19:54:27.780Z,99.90
2023-01-04T19:56:56.439Z,99.90
2023-01-04T19:59:25.124Z,99.90
2023-01-04T20:01:53.941Z,99.90
2023-01-04T20:04:22.498Z,99.90
2023-01-04T20:06:51.139Z,99.90
2023-01-04T20:09:25.068Z,99.90
2023-01-04T20:11:56.574Z,99.90
2023-01-04T20:14:25.285Z,99.90
2023-01-04T20:16:55.529Z,99.90
2023-01-04T20:19:24.990Z,99.90
2023-01-04T20:21:53.512Z,99.90
2023-01-04T20:24:24.019Z,99.90
2023-01-04T20:26:53.598Z,99.90
2023-01-04T20:29:21.861Z,99.90
2023-01-04T20:31:50.624Z,99.90
2023-01-04T20:34:19.269Z,99.90
2023-01-04T20:36:48.284Z,99.90
2023-01-04T20:39:18.216Z,99.90
2023-01-04T20:42:05.013Z,99.90
2023-01-04T20:44:33.442Z,99.90
2023-01-04T20:47:02.833Z,99.90
2023-01-04T20:49:33.125Z,99.90
2023-01-04T20:52:01.123Z,99.90
2023-01-04T20:54:29.633Z,99.90
2023-01-04T20:56:58.283Z,99.90
2023-01-04T20:59:26.745Z,99.90
2023-01-04T21:01:54.810Z,99.90
2023-01-04T21:04:23.475Z,99.90
2023-01-04T21:06:52.513Z,99.90
2023-01-04T21:09:20.521Z,99.90
2023-01-04T21:11:48.811Z,99.90
2023-01-04T21:14:16.740Z,99.90
2023-01-04T21:16:45.524Z,99.90
2023-01-04T21:19:13.675Z,99.90
2023-01-04T21:21:41.988Z,99.90
2023-01-04T21:24:11.760Z,99.90
2023-01-04T21:26:39.780Z,99.90
2023-01-04T21:29:07.806Z,99.90
2023-01-04T21:31:36.213Z,99.90
2023-01-04T21:34:09.347Z,99.90
2023-01-04T21:36:40.619Z,99.90
2023-01-04T21:39:08.304Z,99.90
2023-01-04T21:41:35.918Z,99.90
2023-01-04T21:44:03.520Z,99.90
2023-01-04T21:46:31.543Z,99.90
2023-01-04T21:49:01.823Z,99.90
2023-01-04T21:51:29.933Z,99.90
2023-01-04T21:53:58.327Z,99.90
2023-01-04T21:56:25.970Z,99.90
2023-01-04T21:58:53.903Z,99.90
2023-01-04T22:01:28.453Z,99.90
2023-01-04T22:03:58.715Z,99.90
2023-01-04T22:06:26.468Z,99.90
2023-01-04T22:08:54.130Z,99.90
2023-01-04T22:11:21.878Z,99.90
2023-01-04T22:13:50.705Z,99.90
2023-01-04T22:16:18.775Z,99.90
2023-01-04T22:18:48.490Z,99.90
2023-01-04T22:21:19.122Z,99.90
2023-01-04T22:23:46.844Z,99.90
2023-01-04T22:26:14.430Z,99.90
2023-01-04T22:28:42.133Z,99.90
2023-01-04T22:31:12.687Z,99.90
2023-01-04T22:33:41.460Z,99.90
2023-01-04T22:36:21.899Z,99.90
2023-01-04T22:38:56.094Z,99.90
2023-01-04T22:41:26.837Z,99.90
2023-01-04T22:43:59.670Z,99.90
2023-01-04T22:46:28.787Z,99.90
2023-01-04T22:48:57.010Z,99.90
2023-01-04T22:51:27.789Z,99.90
2023-01-04T22:53:57.993Z,99.90
2023-01-04T22:56:26.252Z,99.90
2023-01-04T22:58:55.815Z,99.90
2023-01-04T23:01:29.604Z,99.90
2023-01-04T23:03:59.144Z,99.90
2023-01-04T23:06:28.002Z,99.90
2023-01-04T23:09:00.433Z,99.90
2023-01-04T23:11:29.584Z,99.90
2023-01-04T23:13:58.210Z,99.90
2023-01-04T23:16:31.873Z,99.90
2023-01-04T23:19:02.230Z,99.90
2023-01-04T23:21:30.630Z,99.90
2023-01-04T23:23:58.993Z,99.90
2023-01-04T23:26:28.913Z,99.90
2023-01-04T23:28:56.932Z,99.90
2023-01-04T23:31:26.704Z,99.90
2023-01-04T23:33:56.547Z,99.90
2023-01-04T23:36:31.599Z,99.90
2023-01-04T23:39:01.355Z,99.90
2023-01-04T23:41:49.942Z,99.90
2023-01-04T23:44:20.175Z,99.90
2023-01-04T23:46:58.896Z,99.90
2023-01-04T23:49:28.638Z,99.90
2023-01-04T23:51:56.906Z,99.90
2023-01-04T23:54:25.337Z,99.90
2023-01-04T23:56:53.070Z,99.90
2023-01-04T23:59:22.291Z,99.90
